createdAt,value
2023-03-05T23:01:13.858Z,4.00
2023-03-05T23:01:46.289Z,2.40
2023-03-05T23:02:18.740Z,2.40
2023-03-05T23:02:51.197Z,1.60
2023-03-05T23:03:23.713Z,1.60
2023-03-05T23:03:56.149Z,3.20
2023-03-05T23:04:28.669Z,6.40
2023-03-05T23:05:01.311Z,6.40
2023-03-05T23:05:33.938Z,4.80
2023-03-05T23:06:06.563Z,8.00
2023-03-05T23:06:38.996Z,5.60
2023-03-05T23:07:11.470Z,3.20
2023-03-05T23:07:43.921Z,3.20
2023-03-05T23:08:16.378Z,5.60
2023-03-05T23:08:48.919Z,4.00
2023-03-05T23:09:21.362Z,2.40
2023-03-05T23:09:54.597Z,4.80
2023-03-05T23:10:27.363Z,3.20
2023-03-05T23:10:59.458Z,1.60
2023-03-05T23:11:31.895Z,1.60
2023-03-05T23:12:04.333Z,4.80
2023-03-05T23:12:36.782Z,3.20
2023-03-05T23:13:16.758Z,4.00
2023-03-05T23:13:49.206Z,7.20
2023-03-05T23:14:21.672Z,8.00
2023-03-05T23:14:54.233Z,6.40
2023-03-05T23:15:26.686Z,7.20
2023-03-05T23:15:59.164Z,4.80
2023-03-05T23:16:31.648Z,4.80
2023-03-05T23:17:04.111Z,5.60
2023-03-05T23:17:36.603Z,4.80
2023-03-05T23:18:09.208Z,5.60
2023-03-05T23:18:41.694Z,8.00
2023-03-05T23:19:14.147Z,2.40
2023-03-05T23:19:46.607Z,1.60
2023-03-05T23:20:19.046Z,5.60
2023-03-05T23:20:51.513Z,7.20
2023-03-05T23:21:24.028Z,12.81
2023-03-05T23:21:56.508Z,8.80
2023-03-05T23:22:29.000Z,4.80
2023-03-05T23:23:01.465Z,6.41
2023-03-05T23:23:34.040Z,7.21
2023-03-05T23:24:06.505Z,5.60
2023-03-05T23:24:38.983Z,4.80
2023-03-05T23:25:11.495Z,4.00
2023-03-05T23:25:43.996Z,5.60
2023-03-05T23:26:16.469Z,4.00
2023-03-05T23:26:48.942Z,4.00
2023-03-05T23:27:21.444Z,3.20
2023-03-05T23:27:54.005Z,5.60
2023-03-05T23:28:26.460Z,5.60
2023-03-05T23:28:58.931Z,3.20
2023-03-05T23:29:31.385Z,5.60
2023-03-05T23:30:03.869Z,4.00
2023-03-05T23:30:36.393Z,7.20
2023-03-05T23:31:08.922Z,8.00
2023-03-05T23:31:41.324Z,4.00
2023-03-05T23:32:13.809Z,9.60
2023-03-05T23:32:46.229Z,8.00
2023-03-05T23:33:18.677Z,10.40
2023-03-05T23:33:51.148Z,3.20
2023-03-05T23:34:23.613Z,4.80
2023-03-05T23:34:56.072Z,4.80
2023-03-05T23:35:28.602Z,4.80
2023-03-05T23:36:01.084Z,5.60
2023-03-05T23:36:33.562Z,4.80
2023-03-05T23:37:06.055Z,9.60
2023-03-05T23:37:38.476Z,8.80
2023-03-05T23:38:10.933Z,8.00
2023-03-05T23:38:43.393Z,6.41
2023-03-05T23:39:15.861Z,5.60
2023-03-05T23:39:48.319Z,4.80
2023-03-05T23:40:20.769Z,8.00
2023-03-05T23:40:53.247Z,4.80
2023-03-05T23:41:25.701Z,5.60
2023-03-05T23:41:58.174Z,8.00
2023-03-05T23:42:30.636Z,11.21
2023-03-05T23:43:03.162Z,8.80
2023-03-05T23:43:35.723Z,8.00
2023-03-05T23:44:08.178Z,12.01
2023-03-05T23:44:40.665Z,8.00
2023-03-05T23:45:13.144Z,9.60
2023-03-05T23:45:45.612Z,12.81
2023-03-05T23:46:18.085Z,12.81
2023-03-05T23:46:50.601Z,12.81
2023-03-05T23:47:23.097Z,8.80
2023-03-05T23:47:55.628Z,8.00
2023-03-05T23:48:28.118Z,4.80
2023-03-05T23:49:00.589Z,11.21
2023-03-05T23:49:33.137Z,9.60
2023-03-05T23:50:05.480Z,6.40
2023-03-05T23:50:37.946Z,10.40
2023-03-05T23:51:10.456Z,7.20
2023-03-05T23:51:42.884Z,8.80
2023-03-05T23:52:15.342Z,8.80
2023-03-05T23:52:47.787Z,6.40
2023-03-05T23:53:20.282Z,7.20
2023-03-05T23:53:52.719Z,7.20
2023-03-05T23:54:25.172Z,8.80
2023-03-05T23:54:57.689Z,9.60
2023-03-05T23:55:30.173Z,9.60
2023-03-05T23:56:02.649Z,8.00
2023-03-05T23:56:35.147Z,9.60
2023-03-05T23:57:07.592Z,12.01
2023-03-05T23:57:40.074Z,11.21
2023-03-05T23:58:12.521Z,16.81
2023-03-05T23:58:44.984Z,8.00
2023-03-05T23:59:17.560Z,7.20
2023-03-05T23:59:50.018Z,8.00
